PWSweather.com
Personal Weather Stations
Station Observations

OlomoucCZ

Lat: 49.5936202181, Lon: 17.2276005149

Elevation: 752

Station Type: Davis Vantage Pro 2 Activ

http://infopocasi-olomouc.cz

Latest ConditionsUpdated 11:30:01 AM GMT+01:01 Sunday, Jan 21, 2018
Currently Today's Max Today's Min Today's Average
Temperature 34.9°F1.6°C 34.9°F1.6°C 32.3°F0.2°C 32.9°F0.5°C
Dew Point 34.1°F1.2°C 34.1°F1.2°C 31.5°F-0.3°C 32.0°F0.0°C
Winds 5.8 mph NW9.3 kmh NW 5.8 mph NW9.3 kmh NW - 1.4 mph 2.3 kmh
Wind Gusts 8.1 mph13.0 kmh 8.1 mph13.0 kmh - -
Humidity 97% 98% 93% 96%
Pressure 29.75 in1007.5 mb 29.75 in1007.5 mb 29.59 in1002.0 mb -
Hour Temp Dew Point Humidity Winds Wind Gusts Pressure Precip Precip Rate Daily Precip Total
11:30 AM 34.9°F1.6°C 34.1°F1.2°C 97% 5.8 mph NW9.3 kmh NW 8.1 mph13.0 kmh 29.75 in1007.5 mb - 0.00 in0.0 mm 0.00 in0.0 mm
11:00 AM 33.7°F0.9°C 32.9°F0.5°C 97% 3.5 mph WNW5.6 kmh WNW 3.5 mph5.6 kmh 29.74 in1007.1 mb - 0.00 in0.0 mm 0.00 in0.0 mm
10:30 AM 33.2°F0.7°C 32.4°F0.2°C 97% 2.3 mph NW3.7 kmh NW 3.5 mph5.6 kmh 29.73 in1006.8 mb - 0.00 in0.0 mm 0.00 in0.0 mm
10:00 AM 32.9°F0.5°C 32.4°F0.2°C 98% 2.3 mph NW3.7 kmh NW 3.5 mph5.6 kmh 29.72 in1006.4 mb - 0.00 in0.0 mm 0.00 in0.0 mm
09:30 AM 32.8°F0.4°C 32.3°F0.2°C 98% 2.3 mph NW3.7 kmh NW 3.5 mph5.6 kmh 29.70 in1005.8 mb - 0.00 in0.0 mm 0.00 in0.0 mm
09:00 AM 32.6°F0.3°C 32.1°F0.1°C 98% 2.3 mph NW3.7 kmh NW 3.5 mph5.6 kmh 29.69 in1005.4 mb - 0.00 in0.0 mm 0.00 in0.0 mm
08:30 AM 32.4°F0.2°C 31.9°F-0.1°C 98% 2.3 mph NW3.7 kmh NW 3.5 mph5.6 kmh 29.68 in1005.1 mb - 0.00 in0.0 mm 0.00 in0.0 mm
08:00 AM 32.3°F0.2°C 31.8°F-0.1°C 98% 1.2 mph NW1.9 kmh NW 2.3 mph3.7 kmh 29.66 in1004.4 mb - 0.00 in0.0 mm 0.00 in0.0 mm
07:30 AM 32.4°F0.2°C 31.9°F-0.1°C 98% 1.2 mph N1.9 kmh N 1.2 mph1.9 kmh 29.65 in1004.1 mb - 0.00 in0.0 mm 0.00 in0.0 mm
07:00 AM 32.3°F0.2°C 31.8°F-0.1°C 98% Calm Calm -- 29.63 in1003.4 mb - 0.00 in0.0 mm 0.00 in0.0 mm
06:30 AM 32.5°F0.3°C 32.0°F0.0°C 98% 1.2 mph NNE1.9 kmh NNE 2.3 mph3.7 kmh 29.62 in1003.0 mb - 0.00 in0.0 mm 0.00 in0.0 mm
06:00 AM 32.8°F0.4°C 32.0°F0.0°C 97% 2.3 mph NE3.7 kmh NE 3.5 mph5.6 kmh 29.61 in1002.7 mb - 0.00 in0.0 mm 0.00 in0.0 mm
05:30 AM 33.4°F0.8°C 32.1°F0.1°C 95% 1.2 mph NE1.9 kmh NE 2.3 mph3.7 kmh 29.61 in1002.7 mb - 0.00 in0.0 mm 0.00 in0.0 mm
05:00 AM 33.3°F0.7°C 31.5°F-0.3°C 93% Calm Calm -- 29.60 in1002.4 mb - 0.00 in0.0 mm 0.00 in0.0 mm
04:30 AM 33.4°F0.8°C 31.6°F-0.2°C 93% 1.2 mph NE1.9 kmh NE 2.3 mph3.7 kmh 29.60 in1002.4 mb - 0.00 in0.0 mm 0.00 in0.0 mm
04:00 AM 33.2°F0.7°C 31.9°F-0.1°C 95% Calm Calm -- 29.60 in1002.4 mb - 0.00 in0.0 mm 0.00 in0.0 mm
03:30 AM 32.9°F0.5°C 31.6°F-0.2°C 95% Calm Calm -- 29.59 in1002.0 mb - 0.00 in0.0 mm 0.00 in0.0 mm
03:00 AM 32.8°F0.4°C 31.8°F-0.1°C 96% Calm Calm -- 29.59 in1002.0 mb - 0.00 in0.0 mm 0.00 in0.0 mm
02:30 AM 32.7°F0.4°C 31.7°F-0.2°C 96% 1.2 mph NE1.9 kmh NE -- 29.60 in1002.4 mb - 0.00 in0.0 mm 0.00 in0.0 mm
02:00 AM 32.5°F0.3°C 31.7°F-0.2°C 97% Calm Calm -- 29.61 in1002.7 mb - 0.00 in0.0 mm 0.00 in0.0 mm
01:30 AM 32.6°F0.3°C 31.6°F-0.2°C 96% Calm Calm 1.2 mph1.9 kmh 29.60 in1002.4 mb - 0.00 in0.0 mm 0.00 in0.0 mm
01:00 AM 32.8°F0.4°C 31.8°F-0.1°C 96% Calm Calm -- 29.61 in1002.7 mb - 0.00 in0.0 mm 0.00 in0.0 mm
12:30 AM 32.9°F0.5°C 31.9°F-0.1°C 96% Calm Calm -- 29.63 in1003.4 mb - 0.00 in0.0 mm 0.00 in0.0 mm
12:00 AM 33.2°F0.7°C 31.9°F-0.1°C 95% 2.3 mph E3.7 kmh E 3.5 mph5.6 kmh 29.64 in1003.7 mb - 0.00 in0.0 mm 0.00 in0.0 mm